createdAt,value
2022-11-05T00:01:14.381Z,97007.54
2022-11-05T00:04:01.237Z,97007.42
2022-11-05T00:06:48.372Z,97009.10
2022-11-05T00:09:32.955Z,97011.33
2022-11-05T00:12:29.648Z,97009.70
2022-11-05T00:15:17.427Z,97000.36
2022-11-05T00:17:45.642Z,96996.61
2022-11-05T00:20:14.174Z,97000.67
2022-11-05T00:23:01.410Z,97006.66
2022-11-05T00:25:30.641Z,97005.40
2022-11-05T00:28:03.994Z,97004.24
2022-11-05T00:30:32.746Z,97005.89
2022-11-05T00:33:04.785Z,97003.17
2022-11-05T00:35:33.254Z,97004.61
2022-11-05T00:38:01.439Z,97006.53
2022-11-05T00:40:30.597Z,97007.55
2022-11-05T00:43:17.610Z,97005.44
2022-11-05T00:45:45.953Z,97003.78
2022-11-05T00:48:32.869Z,97003.88
2022-11-05T00:51:01.209Z,97011.23
2022-11-05T00:53:29.566Z,97016.26
2022-11-05T00:55:58.478Z,97014.11
2022-11-05T00:58:30.287Z,97014.36
2022-11-05T01:01:00.975Z,97009.14
2022-11-05T01:03:32.915Z,97007.09
2022-11-05T01:06:09.493Z,97005.84
2022-11-05T01:08:38.028Z,97005.10
2022-11-05T01:11:33.734Z,97007.19
2022-11-05T01:14:05.448Z,97001.96
2022-11-05T01:16:34.085Z,97006.15
2022-11-05T01:19:04.152Z,97008.23
2022-11-05T01:21:33.299Z,97006.31
2022-11-05T01:24:03.339Z,97000.54
2022-11-05T01:26:33.297Z,96993.88
2022-11-05T01:29:01.665Z,96986.52
2022-11-05T01:31:30.237Z,96981.95
2022-11-05T01:34:02.020Z,96984.81
2022-11-05T01:36:31.857Z,96981.02
2022-11-05T01:39:00.293Z,96983.84
2022-11-05T01:41:28.593Z,96981.05
2022-11-05T01:44:00.430Z,96981.09
2022-11-05T01:46:43.820Z,96984.36
2022-11-05T01:49:18.207Z,96989.71
2022-11-05T01:51:48.404Z,96982.80
2022-11-05T01:54:22.180Z,96976.00
2022-11-05T01:56:57.931Z,96971.63
2022-11-05T01:59:38.408Z,96980.52
2022-11-05T02:02:09.062Z,96988.70
2022-11-05T02:04:50.534Z,96985.36
2022-11-05T02:07:19.850Z,96986.89
2022-11-05T02:10:06.239Z,96988.48
2022-11-05T02:12:38.111Z,96987.28
2022-11-05T02:15:07.139Z,96988.54
2022-11-05T02:18:01.018Z,96989.13
2022-11-05T02:20:35.600Z,96983.51
2022-11-05T02:23:43.100Z,96973.01
2022-11-05T02:26:32.937Z,96974.06
2022-11-05T02:29:35.941Z,96982.92
2022-11-05T02:32:38.972Z,96992.94
2022-11-05T02:35:27.848Z,96993.54
2022-11-05T02:38:10.190Z,96993.98
2022-11-05T02:40:55.194Z,96988.13
2022-11-05T02:43:44.888Z,96989.45
2022-11-05T02:46:30.269Z,96991.39
2022-11-05T02:49:07.865Z,96987.73
2022-11-05T02:51:57.217Z,96988.20
2022-11-05T02:54:54.566Z,96986.04
2022-11-05T02:57:22.794Z,96980.27
2022-11-05T03:00:02.033Z,96972.35
2022-11-05T03:02:30.748Z,96974.00
2022-11-05T03:05:01.329Z,96980.70
2022-11-05T03:07:56.545Z,96976.04
2022-11-05T03:10:35.896Z,96971.59
2022-11-05T03:13:28.257Z,96973.52
2022-11-05T03:16:55.120Z,96980.11
2022-11-05T03:19:26.323Z,96979.23
2022-11-05T03:22:00.840Z,96973.48
2022-11-05T03:24:35.812Z,96969.33
2022-11-05T03:27:12.139Z,96974.75
2022-11-05T03:29:49.828Z,96970.51
2022-11-05T03:32:21.490Z,96978.00
2022-11-05T03:35:01.629Z,96978.89
2022-11-05T03:37:36.346Z,96985.09
2022-11-05T03:40:08.944Z,96995.64
2022-11-05T03:42:41.206Z,96995.86
2022-11-05T03:45:15.016Z,97000.40
2022-11-05T03:47:46.471Z,97003.83
2022-11-05T03:50:22.525Z,97007.20
2022-11-05T03:52:59.827Z,97010.64
2022-11-05T03:55:36.762Z,97007.88
2022-11-05T03:58:06.771Z,97005.27
2022-11-05T04:00:35.589Z,97003.73
2022-11-05T04:03:03.856Z,97004.95
2022-11-05T04:05:32.264Z,97000.89
2022-11-05T04:08:19.266Z,96992.41
2022-11-05T04:11:06.721Z,96990.86
2022-11-05T04:13:36.116Z,96993.13
2022-11-05T04:16:34.379Z,96997.41
2022-11-05T04:19:02.756Z,96996.45
2022-11-05T04:21:49.767Z,96997.09
2022-11-05T04:24:18.378Z,97002.69
2022-11-05T04:26:47.668Z,97001.85
2022-11-05T04:29:34.667Z,96999.86
2022-11-05T04:32:03.183Z,97004.12
2022-11-05T04:34:31.667Z,97005.46
2022-11-05T04:37:00.357Z,97004.70
2022-11-05T04:39:29.345Z,97007.42
2022-11-05T04:41:58.198Z,97009.26
2022-11-05T04:44:27.203Z,97013.16
2022-11-05T04:46:57.243Z,97010.90
2022-11-05T04:49:25.731Z,97008.59
2022-11-05T04:51:54.308Z,97010.94
2022-11-05T04:54:22.946Z,97011.64
2022-11-05T04:56:52.233Z,97012.30
2022-11-05T04:59:22.918Z,97015.80
2022-11-05T05:01:53.373Z,97015.96
2022-11-05T05:04:24.187Z,97017.52
2022-11-05T05:06:54.251Z,97019.91
2022-11-05T05:09:23.793Z,97018.95
2022-11-05T05:11:52.695Z,97014.85
2022-11-05T05:14:21.427Z,97013.08
2022-11-05T05:16:50.492Z,97003.81
2022-11-05T05:19:19.253Z,96999.92
2022-11-05T05:21:48.140Z,97000.93
2022-11-05T05:24:19.669Z,97004.88
2022-11-05T05:26:50.500Z,97004.48
2022-11-05T05:29:19.489Z,97003.39
2022-11-05T05:31:47.829Z,97000.06
2022-11-05T05:34:16.574Z,96994.49
2022-11-05T05:36:45.521Z,96995.55
2022-11-05T05:39:14.429Z,96995.05
2022-11-05T05:41:43.326Z,97001.73
2022-11-05T05:44:12.148Z,97004.52
2022-11-05T05:46:41.061Z,97003.09
2022-11-05T05:49:12.638Z,97001.15
2022-11-05T05:51:41.388Z,96996.45
2022-11-05T05:54:12.338Z,97004.66
2022-11-05T05:56:43.452Z,97016.27
2022-11-05T05:59:13.195Z,97019.51
2022-11-05T06:01:42.244Z,97013.05
2022-11-05T06:04:11.178Z,97011.36
2022-11-05T06:06:40.212Z,97018.61
2022-11-05T06:09:10.044Z,97024.98
2022-11-05T06:11:39.487Z,97026.86
2022-11-05T06:14:13.352Z,97038.91
2022-11-05T06:16:41.708Z,97040.71
2022-11-05T06:19:10.368Z,97042.64
2022-11-05T06:21:38.948Z,97051.92
2022-11-05T06:24:10.657Z,97059.44
2022-11-05T06:26:43.171Z,97073.92
2022-11-05T06:29:11.194Z,97077.14
2022-11-05T06:31:39.589Z,97081.42
2022-11-05T06:34:07.946Z,97084.78
2022-11-05T06:36:35.964Z,97079.63
2022-11-05T06:39:04.442Z,97080.41
2022-11-05T06:41:45.652Z,97077.29
2022-11-05T06:44:21.596Z,97082.35
2022-11-05T06:46:49.866Z,97086.71
2022-11-05T06:49:18.107Z,97081.11
2022-11-05T06:51:46.248Z,97077.09
2022-11-05T06:54:14.361Z,97079.27
2022-11-05T06:56:42.871Z,97082.59
2022-11-05T06:59:11.100Z,97086.80
2022-11-05T07:01:39.394Z,97084.89
2022-11-05T07:04:07.938Z,97085.06
2022-11-05T07:06:37.230Z,97083.35
2022-11-05T07:09:05.704Z,97079.84
2022-11-05T07:11:34.034Z,97079.44
2022-11-05T07:14:02.510Z,97080.83
2022-11-05T07:16:31.396Z,97077.06
2022-11-05T07:19:00.025Z,97077.78
2022-11-05T07:21:28.813Z,97081.25
2022-11-05T07:23:57.049Z,97082.98
2022-11-05T07:26:27.416Z,97087.76
2022-11-05T07:28:59.020Z,97085.50
2022-11-05T07:31:27.332Z,97085.80
2022-11-05T07:33:55.861Z,97082.85
2022-11-05T07:36:24.278Z,97085.83
2022-11-05T07:38:58.928Z,97087.16
2022-11-05T07:41:29.938Z,97082.30
2022-11-05T07:43:58.959Z,97079.77
2022-11-05T07:46:27.340Z,97080.39
2022-11-05T07:48:55.696Z,97079.31
2022-11-05T07:51:24.153Z,97081.23
2022-11-05T07:53:52.444Z,97082.88
2022-11-05T07:56:20.651Z,97079.29
2022-11-05T07:58:49.383Z,97080.33
2022-11-05T08:01:18.155Z,97078.84
2022-11-05T08:03:46.580Z,97079.09
2022-11-05T08:06:15.051Z,97080.39
2022-11-05T08:08:43.441Z,97083.40
2022-11-05T08:11:12.637Z,97089.39
2022-11-05T08:13:43.037Z,97089.59
2022-11-05T08:16:11.263Z,97086.63
2022-11-05T08:18:39.952Z,97088.84
2022-11-05T08:21:09.721Z,97086.27
2022-11-05T08:23:39.700Z,97085.79
2022-11-05T08:26:07.832Z,97089.00
2022-11-05T08:28:36.314Z,97091.05
2022-11-05T08:31:04.944Z,97089.89
2022-11-05T08:33:35.162Z,97091.91
2022-11-05T08:36:04.834Z,97089.53
2022-11-05T08:38:33.310Z,97081.85
2022-11-05T08:41:01.678Z,97083.45
2022-11-05T08:43:29.988Z,97079.27
2022-11-05T08:46:01.491Z,97072.94
2022-11-05T08:48:29.698Z,97072.94
2022-11-05T08:51:00.609Z,97076.45
2022-11-05T08:53:28.957Z,97078.63
2022-11-05T08:56:00.834Z,97079.19
2022-11-05T08:58:29.391Z,97077.27
2022-11-05T09:01:03.428Z,97075.77
2022-11-05T09:03:32.922Z,97071.10
2022-11-05T09:06:01.388Z,97071.53
2022-11-05T09:08:30.215Z,97074.39
2022-11-05T09:10:58.912Z,97073.92
2022-11-05T09:13:27.621Z,97069.78
2022-11-05T09:15:59.336Z,97068.42
2022-11-05T09:18:28.293Z,97064.98
2022-11-05T09:20:56.598Z,97060.33
2022-11-05T09:23:24.751Z,97059.48
2022-11-05T09:25:52.921Z,97062.55
2022-11-05T09:28:22.938Z,97063.87
2022-11-05T09:30:52.967Z,97064.44
2022-11-05T09:33:24.940Z,97064.08
2022-11-05T09:35:53.833Z,97065.84
2022-11-05T09:38:22.268Z,97065.32
2022-11-05T09:41:23.062Z,97059.27
2022-11-05T09:43:56.927Z,97055.24
2022-11-05T09:46:28.392Z,97049.63
2022-11-05T09:49:24.668Z,97051.29
2022-11-05T09:51:55.797Z,97057.36
2022-11-05T09:54:28.640Z,97059.63
2022-11-05T09:56:57.141Z,97055.89
2022-11-05T09:59:51.177Z,97051.92
2022-11-05T10:02:34.004Z,97048.87
2022-11-05T10:05:10.431Z,97052.62
2022-11-05T10:08:03.689Z,97055.77
2022-11-05T10:10:47.807Z,97047.80
2022-11-05T10:14:01.495Z,97044.27
2022-11-05T10:16:36.171Z,97046.90
2022-11-05T10:19:17.394Z,97047.05
2022-11-05T10:22:05.698Z,97049.62
2022-11-05T10:24:34.775Z,97049.80
2022-11-05T10:27:05.104Z,97042.05
2022-11-05T10:29:35.179Z,97041.63
2022-11-05T10:32:06.249Z,97038.31
2022-11-05T10:34:38.842Z,97034.67
2022-11-05T10:37:07.490Z,97031.42
2022-11-05T10:39:35.788Z,97032.12
2022-11-05T10:42:23.471Z,97035.85
2022-11-05T10:44:55.280Z,97037.04
2022-11-05T10:47:38.688Z,97037.95
2022-11-05T10:50:18.835Z,97038.36
2022-11-05T10:52:58.811Z,97035.70
2022-11-05T10:55:36.784Z,97032.48
2022-11-05T10:58:17.468Z,97035.08
2022-11-05T11:00:49.826Z,97035.83
2022-11-05T11:03:40.051Z,97031.51
2022-11-05T11:06:25.837Z,97028.07
2022-11-05T11:08:57.586Z,97030.86
2022-11-05T11:11:37.428Z,97027.98
2022-11-05T11:14:10.188Z,97029.48
2022-11-05T11:16:43.376Z,97025.40
2022-11-05T11:19:32.337Z,97023.73
2022-11-05T11:22:03.889Z,97022.04
2022-11-05T11:24:42.146Z,97026.70
2022-11-05T11:27:15.138Z,97026.61
2022-11-05T11:29:49.712Z,97026.58
2022-11-05T11:32:20.669Z,97029.65
2022-11-05T11:34:54.872Z,97029.38
2022-11-05T11:37:28.196Z,97029.05
2022-11-05T11:40:02.658Z,97028.52
2022-11-05T11:42:37.078Z,97025.57
2022-11-05T11:45:27.158Z,97019.42
2022-11-05T11:47:58.335Z,97015.86
2022-11-05T11:50:41.989Z,97014.16
2022-11-05T11:53:35.010Z,97012.55
2022-11-05T11:56:13.715Z,97008.80
2022-11-05T11:58:53.298Z,97005.94
2022-11-05T12:01:24.879Z,97010.32
2022-11-05T12:04:17.813Z,97012.17
2022-11-05T12:06:55.393Z,97011.31
2022-11-05T12:09:48.468Z,97015.84
2022-11-05T12:12:21.785Z,97013.73
2022-11-05T12:15:04.176Z,97012.31
2022-11-05T12:17:48.056Z,97012.36
2022-11-05T12:20:35.400Z,97014.20
2022-11-05T12:23:25.309Z,97014.02
2022-11-05T12:26:05.890Z,97014.33
2022-11-05T12:32:03.384Z,97015.98
2022-11-05T12:34:59.282Z,97017.67
2022-11-05T12:37:39.464Z,97018.95
2022-11-05T12:40:08.210Z,97019.46
2022-11-05T12:42:58.776Z,97017.05
2022-11-05T12:45:47.238Z,97017.15
2022-11-05T12:48:41.419Z,97020.19
2022-11-05T12:51:29.951Z,97027.48
2022-11-05T12:54:07.499Z,97030.82
2022-11-05T12:56:42.446Z,97028.66
2022-11-05T12:59:17.331Z,97025.61
2022-11-05T13:02:03.805Z,97028.55
2022-11-05T13:04:50.351Z,97032.06
2022-11-05T13:07:27.793Z,97034.92
2022-11-05T13:10:03.922Z,97036.19
2022-11-05T13:12:36.432Z,97036.91
2022-11-05T13:15:25.073Z,97037.02
2022-11-05T13:17:58.665Z,97038.42
2022-11-05T13:20:38.915Z,97038.83
2022-11-05T13:23:26.392Z,97036.60
2022-11-05T13:26:04.044Z,97032.80
2022-11-05T13:28:56.591Z,97033.45
2022-11-05T13:31:34.370Z,97036.83
2022-11-05T13:34:09.763Z,97037.02
2022-11-05T13:36:56.713Z,97040.32
2022-11-05T13:39:41.875Z,97041.07
2022-11-05T13:42:44.693Z,97042.73
2022-11-05T13:45:31.885Z,97051.66
2022-11-05T13:48:28.774Z,97060.98
2022-11-05T13:51:21.702Z,97061.61
2022-11-05T13:54:04.453Z,97064.10
2022-11-05T13:56:42.074Z,97071.14
2022-11-05T13:59:31.514Z,97075.29
2022-11-05T14:02:01.789Z,97075.70
2022-11-05T14:04:43.693Z,97073.99
2022-11-05T14:07:18.940Z,97077.45
2022-11-05T14:09:56.719Z,97079.14
2022-11-05T14:12:32.665Z,97083.83
2022-11-05T14:15:18.239Z,97078.90
2022-11-05T14:17:58.706Z,97081.00
2022-11-05T14:20:33.463Z,97082.21
2022-11-05T14:23:27.822Z,97081.73
2022-11-05T14:26:11.710Z,97082.28
2022-11-05T14:28:47.411Z,97082.63
2022-11-05T14:31:19.275Z,97084.25
2022-11-05T14:34:19.745Z,97084.29
2022-11-05T14:37:12.156Z,97086.86
2022-11-05T14:39:41.381Z,97084.84
2022-11-05T14:42:27.669Z,97086.29
2022-11-05T14:44:56.422Z,97082.29
2022-11-05T14:47:30.403Z,97083.23
2022-11-05T14:50:09.672Z,97086.47
2022-11-05T14:52:40.830Z,97081.23
2022-11-05T14:55:32.513Z,97085.08
2022-11-05T14:58:04.639Z,97086.42
2022-11-05T15:00:36.929Z,97085.66
2022-11-05T15:03:42.551Z,97088.02
2022-11-05T15:06:29.354Z,97089.13
2022-11-05T15:09:07.741Z,97091.46
2022-11-05T15:11:41.261Z,97090.52
2022-11-05T15:14:29.144Z,97088.96
2022-11-05T15:17:04.849Z,97090.08
2022-11-05T15:19:37.461Z,97093.27
2022-11-05T15:22:24.991Z,97098.20
2022-11-05T15:24:53.437Z,97097.05
2022-11-05T15:27:40.537Z,97099.64
2022-11-05T15:30:21.907Z,97101.42
2022-11-05T15:32:51.989Z,97099.08
2022-11-05T15:35:27.182Z,97103.83
2022-11-05T15:38:02.003Z,97106.18
2022-11-05T15:40:33.373Z,97105.52
2022-11-05T15:43:17.721Z,97109.23
2022-11-05T15:46:04.382Z,97113.86
2022-11-05T15:48:34.028Z,97114.61
2022-11-05T15:51:02.848Z,97117.23
2022-11-05T15:56:49.366Z,97122.02
2022-11-05T15:59:23.804Z,97123.84
2022-11-05T16:02:24.394Z,97123.64
2022-11-05T16:04:53.223Z,97126.94
2022-11-05T16:07:22.214Z,97131.10
2022-11-05T16:09:57.388Z,97133.08
2022-11-05T16:12:32.547Z,97136.06
2022-11-05T16:15:20.347Z,97138.10
2022-11-05T16:17:55.397Z,97138.77
2022-11-05T16:20:33.098Z,97137.52
2022-11-05T16:23:07.445Z,97139.39
2022-11-05T16:25:39.531Z,97141.13
2022-11-05T16:28:24.693Z,97144.64
2022-11-05T16:30:57.582Z,97148.74
2022-11-05T16:33:31.865Z,97147.08
2022-11-05T16:36:00.506Z,97152.56
2022-11-05T16:38:29.514Z,97153.86
2022-11-05T16:41:00.634Z,97158.78
2022-11-05T16:43:29.840Z,97165.23
2022-11-05T16:46:00.374Z,97166.01
2022-11-05T16:48:29.003Z,97165.87
2022-11-05T16:50:57.653Z,97173.91
2022-11-05T16:53:26.382Z,97173.32
2022-11-05T16:55:55.234Z,97173.02
2022-11-05T16:58:26.810Z,97174.45
2022-11-05T17:01:04.062Z,97179.45
2022-11-05T17:03:32.140Z,97180.48
2022-11-05T17:06:00.612Z,97176.04
2022-11-05T17:08:29.956Z,97174.36
2022-11-05T17:10:58.242Z,97172.34
2022-11-05T17:13:26.455Z,97172.17
2022-11-05T17:15:54.540Z,97174.80
2022-11-05T17:18:22.745Z,97175.40
2022-11-05T17:20:53.935Z,97174.80
2022-11-05T17:23:24.218Z,97175.30
2022-11-05T17:25:55.464Z,97175.08
2022-11-05T17:28:23.969Z,97175.52
2022-11-05T17:30:52.973Z,97178.63
2022-11-05T17:33:23.330Z,97178.94
2022-11-05T17:35:52.640Z,97180.81
2022-11-05T17:38:22.503Z,97182.02
2022-11-05T17:40:51.581Z,97185.79
2022-11-05T17:43:20.776Z,97190.05
2022-11-05T17:45:52.187Z,97195.51
2022-11-05T17:48:21.664Z,97201.45
2022-11-05T17:50:51.296Z,97202.81
2022-11-05T17:53:20.493Z,97203.05
2022-11-05T17:55:49.384Z,97205.91
2022-11-05T17:58:17.920Z,97207.97
2022-11-05T18:00:48.983Z,97208.54
2022-11-05T18:03:18.923Z,97203.67
2022-11-05T18:05:47.868Z,97202.89
2022-11-05T18:08:16.501Z,97205.67
2022-11-05T18:10:45.550Z,97207.20
2022-11-05T18:13:14.534Z,97207.69
2022-11-05T18:15:43.969Z,97206.69
2022-11-05T18:18:12.610Z,97207.98
2022-11-05T18:20:40.801Z,97213.67
2022-11-05T18:23:09.005Z,97223.27
2022-11-05T18:25:37.156Z,97226.77
2022-11-05T18:28:05.631Z,97223.33
2022-11-05T18:30:34.487Z,97220.80
2022-11-05T18:33:03.155Z,97224.73
2022-11-05T18:35:31.409Z,97230.52
2022-11-05T18:37:59.736Z,97230.50
2022-11-05T18:40:28.191Z,97230.15
2022-11-05T18:42:56.648Z,97231.70
2022-11-05T18:45:29.524Z,97231.60
2022-11-05T18:48:00.418Z,97232.30
2022-11-05T18:50:29.852Z,97228.00
2022-11-05T18:52:58.554Z,97226.22
2022-11-05T18:55:27.019Z,97229.95
2022-11-05T18:57:55.419Z,97236.45
2022-11-05T19:00:23.928Z,97235.86
2022-11-05T19:02:52.633Z,97236.77
2022-11-05T19:05:28.908Z,97233.23
2022-11-05T19:07:58.580Z,97240.09
2022-11-05T19:10:28.083Z,97245.73
2022-11-05T19:12:56.504Z,97246.52
2022-11-05T19:15:24.727Z,97250.00
2022-11-05T19:17:53.230Z,97250.83
2022-11-05T19:20:21.797Z,97251.15
2022-11-05T19:22:50.270Z,97251.48
2022-11-05T19:25:18.505Z,97251.59
2022-11-05T19:27:47.227Z,97252.05
2022-11-05T19:30:15.854Z,97256.50
2022-11-05T19:32:44.343Z,97256.91
2022-11-05T19:35:12.630Z,97256.55
2022-11-05T19:37:41.149Z,97258.99
2022-11-05T19:40:11.417Z,97260.73
2022-11-05T19:42:39.730Z,97265.14
2022-11-05T19:45:30.437Z,97268.54
2022-11-05T19:47:56.814Z,97274.34
2022-11-05T19:50:25.628Z,97281.31
2022-11-05T19:52:53.944Z,97286.56
2022-11-05T19:55:22.613Z,97290.45
2022-11-05T19:57:51.442Z,97295.80
2022-11-05T20:00:19.652Z,97298.14
2022-11-05T20:02:48.026Z,97303.45
2022-11-05T20:05:18.330Z,97301.80
2022-11-05T20:07:52.547Z,97309.27
2022-11-05T20:10:21.929Z,97314.31
2022-11-05T20:12:50.683Z,97315.70
2022-11-05T20:15:19.882Z,97320.41
2022-11-05T20:17:50.575Z,97321.91
2022-11-05T20:20:19.562Z,97322.80
2022-11-05T20:22:47.943Z,97325.19
2022-11-05T20:25:16.138Z,97326.43
2022-11-05T20:27:44.372Z,97328.25
2022-11-05T20:30:12.894Z,97332.70
2022-11-05T20:32:41.064Z,97333.10
2022-11-05T20:35:10.554Z,97330.78
2022-11-05T20:37:38.716Z,97329.91
2022-11-05T20:40:07.233Z,97331.97
2022-11-05T20:42:37.024Z,97333.96
2022-11-05T20:45:05.670Z,97341.27
2022-11-05T20:47:33.592Z,97342.02
2022-11-05T20:50:02.267Z,97340.23
2022-11-05T20:52:30.655Z,97339.34
2022-11-05T20:54:59.220Z,97339.70
2022-11-05T20:57:27.616Z,97341.05
2022-11-05T20:59:55.800Z,97335.95
2022-11-05T21:02:24.327Z,97337.48
2022-11-05T21:04:52.535Z,97336.94
2022-11-05T21:07:22.327Z,97336.29
2022-11-05T21:09:51.720Z,97335.63
2022-11-05T21:12:22.602Z,97332.30
2022-11-05T21:14:52.523Z,97333.11
2022-11-05T21:17:20.835Z,97338.81
2022-11-05T21:19:49.171Z,97341.19
2022-11-05T21:22:18.205Z,97338.11
2022-11-05T21:24:46.494Z,97339.63
2022-11-05T21:27:15.328Z,97338.17
2022-11-05T21:29:44.010Z,97338.16
2022-11-05T21:32:12.494Z,97335.11
2022-11-05T21:34:41.050Z,97340.72
2022-11-05T21:37:09.382Z,97342.47
2022-11-05T21:39:37.564Z,97343.05
2022-11-05T21:42:05.763Z,97343.16
2022-11-05T21:44:34.366Z,97348.01
2022-11-05T21:47:04.710Z,97351.52
2022-11-05T21:49:34.664Z,97353.15
2022-11-05T21:52:21.373Z,97353.73
2022-11-05T21:55:08.053Z,97354.02
2022-11-05T21:57:54.856Z,97355.69
2022-11-05T22:00:23.819Z,97362.70
2022-11-05T22:02:52.396Z,97363.39
2022-11-05T22:05:20.855Z,97364.03
2022-11-05T22:07:49.822Z,97363.64
2022-11-05T22:10:17.967Z,97366.03
2022-11-05T22:12:46.495Z,97364.02
2022-11-05T22:15:15.041Z,97370.01
2022-11-05T22:17:46.875Z,97371.11
2022-11-05T22:20:17.065Z,97370.80
2022-11-05T22:22:45.564Z,97372.98
2022-11-05T22:25:14.886Z,97375.96
2022-11-05T22:27:44.202Z,97375.27
2022-11-05T22:30:14.135Z,97376.89
2022-11-05T22:32:42.276Z,97377.63
2022-11-05T22:35:10.723Z,97373.17
2022-11-05T22:37:39.060Z,97374.38
2022-11-05T22:40:07.771Z,97372.05
2022-11-05T22:42:36.484Z,97378.48
2022-11-05T22:45:05.139Z,97383.89
2022-11-05T22:47:33.599Z,97381.10
2022-11-05T22:50:03.102Z,97376.22
2022-11-05T22:52:31.295Z,97377.05
2022-11-05T22:54:59.588Z,97378.75
2022-11-05T22:57:27.638Z,97380.06
2022-11-05T22:59:55.746Z,97383.13
2022-11-05T23:02:24.250Z,97383.88
2022-11-05T23:04:52.561Z,97383.58
2022-11-05T23:07:39.213Z,97382.40
2022-11-05T23:10:27.927Z,97384.50
2022-11-05T23:12:56.166Z,97388.73
2022-11-05T23:15:42.977Z,97390.88
2022-11-05T23:18:30.175Z,97393.34
2022-11-05T23:21:22.700Z,97393.16
2022-11-05T23:24:06.592Z,97397.52
2022-11-05T23:26:52.802Z,97396.65
2022-11-05T23:29:26.870Z,97395.44
2022-11-05T23:32:13.840Z,97397.35
2022-11-05T23:34:42.147Z,97399.48
2022-11-05T23:37:28.942Z,97397.75
2022-11-05T23:39:57.150Z,97399.20
2022-11-05T23:42:44.006Z,97400.98
2022-11-05T23:45:31.430Z,97403.33
2022-11-05T23:48:19.253Z,97401.70
2022-11-05T23:50:55.967Z,97405.47
2022-11-05T23:53:24.601Z,97405.58
2022-11-05T23:55:53.159Z,97407.74
2022-11-05T23:58:21.736Z,97415.66
